Main page
METAR-TAF:

METAR-TAF

Airports :

Gökçeada Airport

Gökçeada, Turkey

latitude: 40-12-04N, longitude: 25-52-56E, elevation: 22 m

Current weather observation

The report was made 33 minutes ago, at 09:50 UTC
Wind 8 kt from the North, varying between North/Northwest and East/Northeast
Temperature 29°C
Humidity 48%
Pressure 1005 hPa
Visibility 10 km or more
Few clouds at a height of 3000 ft

METAR: LTFK 180950Z 01008KT 340V060 9999 FEW030 29/17 Q1005

Time: 13:23 (10:23 UTC)

Forecast

The report was made 2 hours and 43 minutes ago, at 07:40 UTC
Forecast valid from 18 at 09 UTC to 18 at 18 UTC
Wind 8 kt from the North
Visibility 10 km or more
Scattered clouds at a height of 3000 ft

TAF: LTFK 180740Z 1809/1818 01008KT 9999 SCT030

Weather observations and forecasts of more than 4000 airports (METAR and TAF reports).

The available stations are represented by yellow and red dots on the map.

Hover mouse over dot to see the name of the station.

Then click to see weather observations and forecasts.

To change the map : click on the green buttons with a black cross to zoom in, on the green button with a dash to zoom out, or on the green arrows for adjacent maps.


METAR-TAF: